sensor_id;sensor_type;location;lat;lon;timestamp;temperature;humidity
39371;DHT22;25099;51.946;4.838;2023-07-20T00:00:50;17.80;99.90
39371;DHT22;25099;51.946;4.838;2023-07-20T00:03:19;17.80;99.90
39371;DHT22;25099;51.946;4.838;2023-07-20T00:05:50;17.80;99.90
39371;DHT22;25099;51.946;4.838;2023-07-20T00:08:17;17.70;99.90
39371;DHT22;25099;51.946;4.838;2023-07-20T00:10:44;18.10;99.90
39371;DHT22;25099;51.946;4.838;2023-07-20T00:13:11;17.60;99.90
39371;DHT22;25099;51.946;4.838;2023-07-20T00:15:37;17.50;99.90
39371;DHT22;25099;51.946;4.838;2023-07-20T00:18:03;17.50;99.90
39371;DHT22;25099;51.946;4.838;2023-07-20T00:20:29;17.40;99.90
39371;DHT22;25099;51.946;4.838;2023-07-20T00:22:55;17.40;99.90
39371;DHT22;25099;51.946;4.838;2023-07-20T00:25:23;17.40;99.90
39371;DHT22;25099;51.946;4.838;2023-07-20T00:27:48;17.50;99.90
39371;DHT22;25099;51.946;4.838;2023-07-20T00:30:14;17.50;99.90
39371;DHT22;25099;51.946;4.838;2023-07-20T00:32:41;17.40;99.90
39371;DHT22;25099;51.946;4.838;2023-07-20T00:35:07;17.40;99.90
39371;DHT22;25099;51.946;4.838;2023-07-20T00:37:32;17.50;99.90
39371;DHT22;25099;51.946;4.838;2023-07-20T00:39:58;17.40;99.90
39371;DHT22;25099;51.946;4.838;2023-07-20T00:42:23;17.70;99.90
39371;DHT22;25099;51.946;4.838;2023-07-20T00:44:49;17.40;99.90
39371;DHT22;25099;51.946;4.838;2023-07-20T00:47:15;17.50;99.90
39371;DHT22;25099;51.946;4.838;2023-07-20T00:49:40;17.50;99.90
39371;DHT22;25099;51.946;4.838;2023-07-20T00:52:07;17.50;99.90
39371;DHT22;25099;51.946;4.838;2023-07-20T00:54:33;17.40;99.90
39371;DHT22;25099;51.946;4.838;2023-07-20T00:57:01;17.50;99.90
39371;DHT22;25099;51.946;4.838;2023-07-20T00:59:27;17.40;99.90
39371;DHT22;25099;51.946;4.838;2023-07-20T01:01:52;17.40;99.90
39371;DHT22;25099;51.946;4.838;2023-07-20T01:04:19;17.40;99.90
39371;DHT22;25099;51.946;4.838;2023-07-20T01:06:55;17.40;99.90
39371;DHT22;25099;51.946;4.838;2023-07-20T01:09:31;17.30;99.90
39371;DHT22;25099;51.946;4.838;2023-07-20T01:12:10;17.70;99.90
39371;DHT22;25099;51.946;4.838;2023-07-20T01:14:37;17.30;99.90
39371;DHT22;25099;51.946;4.838;2023-07-20T01:17:04;17.30;99.90
39371;DHT22;25099;51.946;4.838;2023-07-20T01:19:29;17.20;99.90
39371;DHT22;25099;51.946;4.838;2023-07-20T01:21:59;17.20;99.90
39371;DHT22;25099;51.946;4.838;2023-07-20T01:27:36;17.20;99.90
39371;DHT22;25099;51.946;4.838;2023-07-20T01:30:19;17.20;99.90
39371;DHT22;25099;51.946;4.838;2023-07-20T01:32:49;17.20;99.90
39371;DHT22;25099;51.946;4.838;2023-07-20T01:35:16;17.10;99.90
39371;DHT22;25099;51.946;4.838;2023-07-20T01:37:46;17.20;99.90
39371;DHT22;25099;51.946;4.838;2023-07-20T01:40:14;17.20;99.90
39371;DHT22;25099;51.946;4.838;2023-07-20T01:42:44;17.10;99.90
39371;DHT22;25099;51.946;4.838;2023-07-20T01:45:11;17.70;99.90
39371;DHT22;25099;51.946;4.838;2023-07-20T01:47:37;17.10;99.90
39371;DHT22;25099;51.946;4.838;2023-07-20T01:50:02;17.50;99.90
39371;DHT22;25099;51.946;4.838;2023-07-20T01:52:28;17.10;99.90
39371;DHT22;25099;51.946;4.838;2023-07-20T01:54:54;17.00;99.90
39371;DHT22;25099;51.946;4.838;2023-07-20T01:57:19;17.00;99.90
39371;DHT22;25099;51.946;4.838;2023-07-20T01:59:45;17.00;99.90
39371;DHT22;25099;51.946;4.838;2023-07-20T02:02:11;17.00;99.90
39371;DHT22;25099;51.946;4.838;2023-07-20T02:04:37;17.00;99.90
39371;DHT22;25099;51.946;4.838;2023-07-20T02:07:02;17.00;99.90
39371;DHT22;25099;51.946;4.838;2023-07-20T02:09:28;16.90;99.90
39371;DHT22;25099;51.946;4.838;2023-07-20T02:11:54;16.90;99.90
39371;DHT22;25099;51.946;4.838;2023-07-20T02:14:19;16.90;99.90
39371;DHT22;25099;51.946;4.838;2023-07-20T02:16:45;16.90;99.90
39371;DHT22;25099;51.946;4.838;2023-07-20T02:19:10;16.90;99.90
39371;DHT22;25099;51.946;4.838;2023-07-20T02:21:36;16.80;99.90
39371;DHT22;25099;51.946;4.838;2023-07-20T02:24:01;16.90;99.90
39371;DHT22;25099;51.946;4.838;2023-07-20T02:26:27;16.80;99.90
39371;DHT22;25099;51.946;4.838;2023-07-20T02:28:53;16.90;99.90
39371;DHT22;25099;51.946;4.838;2023-07-20T02:31:19;16.80;99.90
39371;DHT22;25099;51.946;4.838;2023-07-20T02:33:44;16.70;99.90
39371;DHT22;25099;51.946;4.838;2023-07-20T02:36:10;17.20;99.90
39371;DHT22;25099;51.946;4.838;2023-07-20T02:38:35;16.70;99.90
39371;DHT22;25099;51.946;4.838;2023-07-20T02:41:01;16.70;99.90
39371;DHT22;25099;51.946;4.838;2023-07-20T02:43:26;16.60;99.90
39371;DHT22;25099;51.946;4.838;2023-07-20T02:45:53;16.70;99.90
39371;DHT22;25099;51.946;4.838;2023-07-20T02:48:18;16.60;99.90
39371;DHT22;25099;51.946;4.838;2023-07-20T02:50:44;16.50;99.90
39371;DHT22;25099;51.946;4.838;2023-07-20T02:53:09;17.30;99.90
39371;DHT22;25099;51.946;4.838;2023-07-20T02:55:36;16.60;99.90
39371;DHT22;25099;51.946;4.838;2023-07-20T02:58:01;16.60;99.90
39371;DHT22;25099;51.946;4.838;2023-07-20T03:00:27;16.50;99.90
39371;DHT22;25099;51.946;4.838;2023-07-20T03:02:53;16.50;99.90
39371;DHT22;25099;51.946;4.838;2023-07-20T03:05:22;16.40;99.90
39371;DHT22;25099;51.946;4.838;2023-07-20T03:07:51;16.40;99.90
39371;DHT22;25099;51.946;4.838;2023-07-20T03:10:16;16.30;99.90
39371;DHT22;25099;51.946;4.838;2023-07-20T03:12:42;16.20;99.90
39371;DHT22;25099;51.946;4.838;2023-07-20T03:15:08;16.20;99.90
39371;DHT22;25099;51.946;4.838;2023-07-20T03:17:34;16.20;99.90
39371;DHT22;25099;51.946;4.838;2023-07-20T03:20:00;16.40;99.90
39371;DHT22;25099;51.946;4.838;2023-07-20T03:22:26;16.20;99.90
39371;DHT22;25099;51.946;4.838;2023-07-20T03:24:52;16.20;99.90
39371;DHT22;25099;51.946;4.838;2023-07-20T03:27:18;16.10;99.90
39371;DHT22;25099;51.946;4.838;2023-07-20T03:29:43;16.00;99.90
39371;DHT22;25099;51.946;4.838;2023-07-20T03:32:10;16.00;99.90
39371;DHT22;25099;51.946;4.838;2023-07-20T03:34:35;16.00;99.90
39371;DHT22;25099;51.946;4.838;2023-07-20T03:37:01;16.10;99.90
39371;DHT22;25099;51.946;4.838;2023-07-20T03:39:29;16.10;99.90
39371;DHT22;25099;51.946;4.838;2023-07-20T03:41:55;16.20;99.90
39371;DHT22;25099;51.946;4.838;2023-07-20T03:44:20;16.20;99.90
39371;DHT22;25099;51.946;4.838;2023-07-20T03:46:46;16.30;99.90
39371;DHT22;25099;51.946;4.838;2023-07-20T03:49:12;16.30;99.90
39371;DHT22;25099;51.946;4.838;2023-07-20T03:51:37;16.30;99.90
39371;DHT22;25099;51.946;4.838;2023-07-20T03:54:03;16.30;99.90
39371;DHT22;25099;51.946;4.838;2023-07-20T03:56:29;16.30;99.90
39371;DHT22;25099;51.946;4.838;2023-07-20T03:58:59;16.10;99.90
39371;DHT22;25099;51.946;4.838;2023-07-20T04:01:25;16.10;99.90
39371;DHT22;25099;51.946;4.838;2023-07-20T04:03:50;16.00;99.90
39371;DHT22;25099;51.946;4.838;2023-07-20T04:06:16;16.10;99.90
39371;DHT22;25099;51.946;4.838;2023-07-20T04:08:43;16.30;99.90
39371;DHT22;25099;51.946;4.838;2023-07-20T04:11:08;16.10;99.90
39371;DHT22;25099;51.946;4.838;2023-07-20T04:13:34;16.30;99.90
39371;DHT22;25099;51.946;4.838;2023-07-20T04:16:00;16.10;99.90
39371;DHT22;25099;51.946;4.838;2023-07-20T04:18:25;16.10;99.90
39371;DHT22;25099;51.946;4.838;2023-07-20T04:20:51;16.00;99.90
39371;DHT22;25099;51.946;4.838;2023-07-20T04:23:17;16.00;99.90
39371;DHT22;25099;51.946;4.838;2023-07-20T04:25:43;16.10;99.90
39371;DHT22;25099;51.946;4.838;2023-07-20T04:28:09;16.60;99.90
39371;DHT22;25099;51.946;4.838;2023-07-20T04:30:35;16.00;99.90
39371;DHT22;25099;51.946;4.838;2023-07-20T04:33:02;16.00;99.90
39371;DHT22;25099;51.946;4.838;2023-07-20T04:38:12;15.90;99.90
39371;DHT22;25099;51.946;4.838;2023-07-20T04:40:37;15.90;99.90
39371;DHT22;25099;51.946;4.838;2023-07-20T04:43:03;16.00;99.90
39371;DHT22;25099;51.946;4.838;2023-07-20T04:45:29;15.90;99.90
39371;DHT22;25099;51.946;4.838;2023-07-20T04:47:55;15.90;99.90
39371;DHT22;25099;51.946;4.838;2023-07-20T04:50:20;15.90;99.90
39371;DHT22;25099;51.946;4.838;2023-07-20T04:52:46;15.90;99.90
39371;DHT22;25099;51.946;4.838;2023-07-20T04:55:13;15.90;99.90
39371;DHT22;25099;51.946;4.838;2023-07-20T04:57:39;15.90;99.90
39371;DHT22;25099;51.946;4.838;2023-07-20T05:00:05;16.00;99.90
39371;DHT22;25099;51.946;4.838;2023-07-20T05:02:31;16.00;99.90
39371;DHT22;25099;51.946;4.838;2023-07-20T05:04:57;16.10;99.90
39371;DHT22;25099;51.946;4.838;2023-07-20T05:07:22;16.00;99.90
39371;DHT22;25099;51.946;4.838;2023-07-20T05:09:48;15.90;99.90
39371;DHT22;25099;51.946;4.838;2023-07-20T05:12:13;15.90;99.90
39371;DHT22;25099;51.946;4.838;2023-07-20T05:14:39;16.00;99.90
39371;DHT22;25099;51.946;4.838;2023-07-20T05:17:05;16.10;99.90
39371;DHT22;25099;51.946;4.838;2023-07-20T05:19:30;16.00;99.90
39371;DHT22;25099;51.946;4.838;2023-07-20T05:21:56;16.00;99.90
39371;DHT22;25099;51.946;4.838;2023-07-20T05:24:22;16.00;99.90
39371;DHT22;25099;51.946;4.838;2023-07-20T05:26:48;16.10;99.90
39371;DHT22;25099;51.946;4.838;2023-07-20T05:29:13;16.00;99.90
39371;DHT22;25099;51.946;4.838;2023-07-20T05:31:39;16.50;99.90
39371;DHT22;25099;51.946;4.838;2023-07-20T05:34:05;16.20;99.90
39371;DHT22;25099;51.946;4.838;2023-07-20T05:36:30;16.20;99.90
39371;DHT22;25099;51.946;4.838;2023-07-20T05:38:56;16.20;99.90
39371;DHT22;25099;51.946;4.838;2023-07-20T05:41:22;16.40;99.90
39371;DHT22;25099;51.946;4.838;2023-07-20T05:43:48;16.40;99.90
39371;DHT22;25099;51.946;4.838;2023-07-20T05:46:13;16.40;99.90
39371;DHT22;25099;51.946;4.838;2023-07-20T05:48:39;16.50;99.90
39371;DHT22;25099;51.946;4.838;2023-07-20T05:51:05;16.50;99.90
39371;DHT22;25099;51.946;4.838;2023-07-20T05:53:31;16.60;99.90
39371;DHT22;25099;51.946;4.838;2023-07-20T05:55:56;16.60;99.90
39371;DHT22;25099;51.946;4.838;2023-07-20T05:58:22;16.70;99.90
39371;DHT22;25099;51.946;4.838;2023-07-20T06:00:49;16.80;99.90
39371;DHT22;25099;51.946;4.838;2023-07-20T06:03:15;17.00;99.90
39371;DHT22;25099;51.946;4.838;2023-07-20T06:05:42;17.40;99.90
39371;DHT22;25099;51.946;4.838;2023-07-20T06:08:08;17.00;99.90
39371;DHT22;25099;51.946;4.838;2023-07-20T06:10:33;17.00;99.90
39371;DHT22;25099;51.946;4.838;2023-07-20T06:12:59;17.10;99.90
39371;DHT22;25099;51.946;4.838;2023-07-20T06:15:27;17.00;99.90
39371;DHT22;25099;51.946;4.838;2023-07-20T06:17:54;17.20;99.90
39371;DHT22;25099;51.946;4.838;2023-07-20T06:20:20;17.30;99.90
39371;DHT22;25099;51.946;4.838;2023-07-20T06:22:45;17.30;99.90
39371;DHT22;25099;51.946;4.838;2023-07-20T06:25:11;17.30;99.90
39371;DHT22;25099;51.946;4.838;2023-07-20T06:27:36;17.30;99.90
39371;DHT22;25099;51.946;4.838;2023-07-20T06:30:02;17.40;99.90
39371;DHT22;25099;51.946;4.838;2023-07-20T06:32:28;17.30;99.90
39371;DHT22;25099;51.946;4.838;2023-07-20T06:34:53;17.80;99.90
39371;DHT22;25099;51.946;4.838;2023-07-20T06:37:19;17.40;99.90
39371;DHT22;25099;51.946;4.838;2023-07-20T06:39:45;17.50;99.90
39371;DHT22;25099;51.946;4.838;2023-07-20T06:42:11;17.40;99.90
39371;DHT22;25099;51.946;4.838;2023-07-20T06:44:37;17.50;99.90
39371;DHT22;25099;51.946;4.838;2023-07-20T06:47:02;17.50;99.90
39371;DHT22;25099;51.946;4.838;2023-07-20T06:49:28;17.50;99.90
39371;DHT22;25099;51.946;4.838;2023-07-20T06:51:54;17.70;99.90
39371;DHT22;25099;51.946;4.838;2023-07-20T06:54:20;17.60;99.90
39371;DHT22;25099;51.946;4.838;2023-07-20T06:56:45;17.60;99.90
39371;DHT22;25099;51.946;4.838;2023-07-20T06:59:11;18.30;99.90
39371;DHT22;25099;51.946;4.838;2023-07-20T07:01:36;17.60;99.90
39371;DHT22;25099;51.946;4.838;2023-07-20T07:04:02;17.60;99.90
39371;DHT22;25099;51.946;4.838;2023-07-20T07:06:29;17.60;99.90
39371;DHT22;25099;51.946;4.838;2023-07-20T07:08:54;18.00;99.90
39371;DHT22;25099;51.946;4.838;2023-07-20T07:11:21;17.60;99.90
39371;DHT22;25099;51.946;4.838;2023-07-20T07:13:47;18.00;99.90
39371;DHT22;25099;51.946;4.838;2023-07-20T07:16:15;17.70;99.90
39371;DHT22;25099;51.946;4.838;2023-07-20T07:18:44;17.70;99.90
39371;DHT22;25099;51.946;4.838;2023-07-20T07:21:10;18.40;99.90
39371;DHT22;25099;51.946;4.838;2023-07-20T07:23:35;17.70;99.90
39371;DHT22;25099;51.946;4.838;2023-07-20T07:26:01;17.70;99.90
39371;DHT22;25099;51.946;4.838;2023-07-20T07:28:28;17.80;99.90
39371;DHT22;25099;51.946;4.838;2023-07-20T07:30:55;17.70;99.90
39371;DHT22;25099;51.946;4.838;2023-07-20T07:33:20;18.00;99.90
39371;DHT22;25099;51.946;4.838;2023-07-20T07:35:46;17.80;99.90
39371;DHT22;25099;51.946;4.838;2023-07-20T07:38:11;17.80;99.90
39371;DHT22;25099;51.946;4.838;2023-07-20T07:40:37;17.90;99.90
39371;DHT22;25099;51.946;4.838;2023-07-20T07:43:02;17.80;99.90
39371;DHT22;25099;51.946;4.838;2023-07-20T07:45:29;17.90;99.90
39371;DHT22;25099;51.946;4.838;2023-07-20T07:47:54;17.80;99.90
39371;DHT22;25099;51.946;4.838;2023-07-20T07:50:20;17.80;99.90
39371;DHT22;25099;51.946;4.838;2023-07-20T07:52:45;17.70;99.90
39371;DHT22;25099;51.946;4.838;2023-07-20T07:55:13;17.80;99.90
39371;DHT22;25099;51.946;4.838;2023-07-20T07:57:41;17.80;99.90
39371;DHT22;25099;51.946;4.838;2023-07-20T08:00:07;17.80;99.90
39371;DHT22;25099;51.946;4.838;2023-07-20T08:02:36;17.80;99.90
39371;DHT22;25099;51.946;4.838;2023-07-20T08:05:02;18.10;99.90
39371;DHT22;25099;51.946;4.838;2023-07-20T08:07:31;17.90;99.90
39371;DHT22;25099;51.946;4.838;2023-07-20T08:09:56;17.50;99.90
39371;DHT22;25099;51.946;4.838;2023-07-20T08:12:22;17.90;99.90
39371;DHT22;25099;51.946;4.838;2023-07-20T08:14:48;17.80;99.90
39371;DHT22;25099;51.946;4.838;2023-07-20T08:17:14;18.00;99.90
39371;DHT22;25099;51.946;4.838;2023-07-20T08:19:39;18.00;99.90
39371;DHT22;25099;51.946;4.838;2023-07-20T08:22:07;18.00;99.90
39371;DHT22;25099;51.946;4.838;2023-07-20T08:24:32;18.00;99.90
39371;DHT22;25099;51.946;4.838;2023-07-20T08:26:59;18.00;99.90
39371;DHT22;25099;51.946;4.838;2023-07-20T08:29:24;18.10;99.90
39371;DHT22;25099;51.946;4.838;2023-07-20T08:31:50;18.00;99.90
39371;DHT22;25099;51.946;4.838;2023-07-20T08:34:15;18.10;99.90
39371;DHT22;25099;51.946;4.838;2023-07-20T08:36:41;18.70;99.90
39371;DHT22;25099;51.946;4.838;2023-07-20T08:39:07;18.40;99.90
39371;DHT22;25099;51.946;4.838;2023-07-20T08:41:34;18.10;99.90
39371;DHT22;25099;51.946;4.838;2023-07-20T08:44:03;18.10;99.90
39371;DHT22;25099;51.946;4.838;2023-07-20T08:46:29;18.90;99.90
39371;DHT22;25099;51.946;4.838;2023-07-20T08:48:56;18.10;99.90
39371;DHT22;25099;51.946;4.838;2023-07-20T08:51:26;18.80;99.90
39371;DHT22;25099;51.946;4.838;2023-07-20T08:53:52;18.20;99.90
39371;DHT22;25099;51.946;4.838;2023-07-20T08:56:19;18.20;99.90
39371;DHT22;25099;51.946;4.838;2023-07-20T08:58:45;18.30;99.90
39371;DHT22;25099;51.946;4.838;2023-07-20T09:01:11;18.50;99.90
39371;DHT22;25099;51.946;4.838;2023-07-20T09:03:38;18.50;99.90
39371;DHT22;25099;51.946;4.838;2023-07-20T09:06:05;18.50;99.90
39371;DHT22;25099;51.946;4.838;2023-07-20T09:08:33;19.30;99.90
39371;DHT22;25099;51.946;4.838;2023-07-20T09:10:58;18.50;99.90
39371;DHT22;25099;51.946;4.838;2023-07-20T09:13:25;18.60;99.90
39371;DHT22;25099;51.946;4.838;2023-07-20T09:15:54;19.40;99.90
39371;DHT22;25099;51.946;4.838;2023-07-20T09:18:28;18.70;99.90
39371;DHT22;25099;51.946;4.838;2023-07-20T09:21:05;18.70;99.90
39371;DHT22;25099;51.946;4.838;2023-07-20T09:23:36;18.80;99.90
39371;DHT22;25099;51.946;4.838;2023-07-20T09:26:23;18.70;99.90
39371;DHT22;25099;51.946;4.838;2023-07-20T09:28:50;18.70;99.90
39371;DHT22;25099;51.946;4.838;2023-07-20T09:31:21;18.80;99.90
39371;DHT22;25099;51.946;4.838;2023-07-20T09:33:54;18.80;99.90
39371;DHT22;25099;51.946;4.838;2023-07-20T09:36:20;18.80;99.90
39371;DHT22;25099;51.946;4.838;2023-07-20T09:38:49;18.80;99.90
39371;DHT22;25099;51.946;4.838;2023-07-20T09:41:15;18.80;99.90
39371;DHT22;25099;51.946;4.838;2023-07-20T09:43:41;18.70;99.90
39371;DHT22;25099;51.946;4.838;2023-07-20T09:46:16;18.50;99.90
39371;DHT22;25099;51.946;4.838;2023-07-20T09:48:55;18.80;99.90
39371;DHT22;25099;51.946;4.838;2023-07-20T09:51:23;18.90;99.90
39371;DHT22;25099;51.946;4.838;2023-07-20T09:53:52;18.80;99.90
39371;DHT22;25099;51.946;4.838;2023-07-20T09:56:25;19.60;99.90
39371;DHT22;25099;51.946;4.838;2023-07-20T09:58:54;18.90;99.90
39371;DHT22;25099;51.946;4.838;2023-07-20T10:01:21;19.00;99.90
39371;DHT22;25099;51.946;4.838;2023-07-20T10:03:51;19.00;99.90
39371;DHT22;25099;51.946;4.838;2023-07-20T10:06:32;19.60;99.90
39371;DHT22;25099;51.946;4.838;2023-07-20T10:09:02;19.10;99.90
39371;DHT22;25099;51.946;4.838;2023-07-20T10:11:40;19.20;99.90
39371;DHT22;25099;51.946;4.838;2023-07-20T10:14:08;18.90;99.90
39371;DHT22;25099;51.946;4.838;2023-07-20T10:16:39;19.30;99.90
39371;DHT22;25099;51.946;4.838;2023-07-20T10:19:13;19.30;99.90
39371;DHT22;25099;51.946;4.838;2023-07-20T10:21:45;19.20;99.90
39371;DHT22;25099;51.946;4.838;2023-07-20T10:24:13;19.60;99.90
39371;DHT22;25099;51.946;4.838;2023-07-20T10:26:39;19.20;99.90
39371;DHT22;25099;51.946;4.838;2023-07-20T10:29:05;19.20;99.90
39371;DHT22;25099;51.946;4.838;2023-07-20T10:31:32;19.20;99.90
39371;DHT22;25099;51.946;4.838;2023-07-20T10:33:58;19.20;99.90
39371;DHT22;25099;51.946;4.838;2023-07-20T10:36:25;19.20;99.90
39371;DHT22;25099;51.946;4.838;2023-07-20T10:38:55;19.20;99.90
39371;DHT22;25099;51.946;4.838;2023-07-20T10:41:35;19.30;99.90
39371;DHT22;25099;51.946;4.838;2023-07-20T10:44:06;19.30;99.90
39371;DHT22;25099;51.946;4.838;2023-07-20T10:46:45;19.10;99.90
39371;DHT22;25099;51.946;4.838;2023-07-20T10:49:12;19.40;99.90
39371;DHT22;25099;51.946;4.838;2023-07-20T10:51:43;19.40;99.90
39371;DHT22;25099;51.946;4.838;2023-07-20T10:56:41;19.40;99.90
39371;DHT22;25099;51.946;4.838;2023-07-20T10:59:18;19.80;99.90
39371;DHT22;25099;51.946;4.838;2023-07-20T11:01:47;19.50;99.90
39371;DHT22;25099;51.946;4.838;2023-07-20T11:04:15;19.50;99.90
39371;DHT22;25099;51.946;4.838;2023-07-20T11:06:45;19.60;99.90
39371;DHT22;25099;51.946;4.838;2023-07-20T11:09:13;19.60;99.90
39371;DHT22;25099;51.946;4.838;2023-07-20T11:11:48;19.70;99.90
39371;DHT22;25099;51.946;4.838;2023-07-20T11:14:26;19.70;99.90
39371;DHT22;25099;51.946;4.838;2023-07-20T11:16:53;19.70;99.90
39371;DHT22;25099;51.946;4.838;2023-07-20T11:19:21;19.80;99.90
39371;DHT22;25099;51.946;4.838;2023-07-20T11:21:53;19.80;99.90
39371;DHT22;25099;51.946;4.838;2023-07-20T11:24:20;20.10;99.90
39371;DHT22;25099;51.946;4.838;2023-07-20T11:26:47;20.30;99.90
39371;DHT22;25099;51.946;4.838;2023-07-20T11:29:15;19.80;99.90
39371;DHT22;25099;51.946;4.838;2023-07-20T11:31:46;20.10;99.90
39371;DHT22;25099;51.946;4.838;2023-07-20T11:34:14;20.00;99.90
39371;DHT22;25099;51.946;4.838;2023-07-20T11:36:41;20.00;99.90
39371;DHT22;25099;51.946;4.838;2023-07-20T11:39:11;20.10;99.90
39371;DHT22;25099;51.946;4.838;2023-07-20T11:41:38;20.10;99.90
39371;DHT22;25099;51.946;4.838;2023-07-20T11:44:05;20.10;99.90
39371;DHT22;25099;51.946;4.838;2023-07-20T11:46:39;20.10;99.90
39371;DHT22;25099;51.946;4.838;2023-07-20T11:49:05;20.10;99.90
39371;DHT22;25099;51.946;4.838;2023-07-20T11:51:32;20.20;99.90
39371;DHT22;25099;51.946;4.838;2023-07-20T11:53:58;20.20;99.90
39371;DHT22;25099;51.946;4.838;2023-07-20T11:56:27;20.30;99.90
39371;DHT22;25099;51.946;4.838;2023-07-20T11:58:56;20.20;99.90
39371;DHT22;25099;51.946;4.838;2023-07-20T12:01:26;20.20;99.90
39371;DHT22;25099;51.946;4.838;2023-07-20T12:03:57;20.20;99.90
39371;DHT22;25099;51.946;4.838;2023-07-20T12:06:25;20.10;99.90
39371;DHT22;25099;51.946;4.838;2023-07-20T12:08:56;20.10;99.90
39371;DHT22;25099;51.946;4.838;2023-07-20T12:11:34;20.10;99.90
39371;DHT22;25099;51.946;4.838;2023-07-20T12:14:01;20.10;99.90
39371;DHT22;25099;51.946;4.838;2023-07-20T12:16:28;20.10;99.90
39371;DHT22;25099;51.946;4.838;2023-07-20T12:19:16;20.10;99.90
39371;DHT22;25099;51.946;4.838;2023-07-20T12:21:42;20.10;99.90
39371;DHT22;25099;51.946;4.838;2023-07-20T12:24:08;20.00;99.90
39371;DHT22;25099;51.946;4.838;2023-07-20T12:26:35;20.00;99.90
39371;DHT22;25099;51.946;4.838;2023-07-20T12:29:01;20.00;99.90
39371;DHT22;25099;51.946;4.838;2023-07-20T12:31:29;20.00;99.90
39371;DHT22;25099;51.946;4.838;2023-07-20T12:33:56;20.00;99.90
39371;DHT22;25099;51.946;4.838;2023-07-20T12:36:22;20.00;99.90
39371;DHT22;25099;51.946;4.838;2023-07-20T12:38:47;20.00;99.90
39371;DHT22;25099;51.946;4.838;2023-07-20T12:41:14;20.10;99.90
39371;DHT22;25099;51.946;4.838;2023-07-20T12:43:45;20.10;99.90
39371;DHT22;25099;51.946;4.838;2023-07-20T12:46:12;20.10;99.90
39371;DHT22;25099;51.946;4.838;2023-07-20T12:48:39;20.20;99.90
39371;DHT22;25099;51.946;4.838;2023-07-20T12:51:07;20.20;99.90
39371;DHT22;25099;51.946;4.838;2023-07-20T12:53:33;20.30;99.90
39371;DHT22;25099;51.946;4.838;2023-07-20T12:55:59;20.30;99.90
39371;DHT22;25099;51.946;4.838;2023-07-20T12:58:25;20.40;99.90
39371;DHT22;25099;51.946;4.838;2023-07-20T13:00:50;20.40;99.90
39371;DHT22;25099;51.946;4.838;2023-07-20T13:03:16;20.40;99.90
39371;DHT22;25099;51.946;4.838;2023-07-20T13:05:44;20.40;99.90
39371;DHT22;25099;51.946;4.838;2023-07-20T13:08:09;20.50;99.90
39371;DHT22;25099;51.946;4.838;2023-07-20T13:10:35;20.50;99.90
39371;DHT22;25099;51.946;4.838;2023-07-20T13:13:00;20.50;99.90
39371;DHT22;25099;51.946;4.838;2023-07-20T13:15:40;20.50;99.90
39371;DHT22;25099;51.946;4.838;2023-07-20T13:18:06;20.50;99.90
39371;DHT22;25099;51.946;4.838;2023-07-20T13:20:31;20.50;99.90
39371;DHT22;25099;51.946;4.838;2023-07-20T13:22:57;20.60;99.90
39371;DHT22;25099;51.946;4.838;2023-07-20T13:25:23;20.70;99.90
39371;DHT22;25099;51.946;4.838;2023-07-20T13:27:48;20.80;99.90
39371;DHT22;25099;51.946;4.838;2023-07-20T13:30:14;20.90;99.90
39371;DHT22;25099;51.946;4.838;2023-07-20T13:32:43;20.90;99.90
39371;DHT22;25099;51.946;4.838;2023-07-20T13:35:09;21.00;99.90
39371;DHT22;25099;51.946;4.838;2023-07-20T13:37:35;21.00;99.90
39371;DHT22;25099;51.946;4.838;2023-07-20T13:40:01;21.10;99.90
39371;DHT22;25099;51.946;4.838;2023-07-20T13:42:26;21.10;99.90
39371;DHT22;25099;51.946;4.838;2023-07-20T13:44:52;21.00;99.90
39371;DHT22;25099;51.946;4.838;2023-07-20T13:47:17;21.10;99.90
39371;DHT22;25099;51.946;4.838;2023-07-20T13:49:43;21.10;99.90
39371;DHT22;25099;51.946;4.838;2023-07-20T13:52:09;21.20;99.90
39371;DHT22;25099;51.946;4.838;2023-07-20T13:54:34;21.30;99.90
39371;DHT22;25099;51.946;4.838;2023-07-20T13:57:00;21.30;99.90
39371;DHT22;25099;51.946;4.838;2023-07-20T13:59:26;21.30;99.90
39371;DHT22;25099;51.946;4.838;2023-07-20T14:01:51;21.40;99.90
39371;DHT22;25099;51.946;4.838;2023-07-20T14:04:17;21.40;99.90
39371;DHT22;25099;51.946;4.838;2023-07-20T14:06:43;21.40;99.90
39371;DHT22;25099;51.946;4.838;2023-07-20T14:09:09;21.30;99.40
39371;DHT22;25099;51.946;4.838;2023-07-20T14:11:35;21.40;99.90
39371;DHT22;25099;51.946;4.838;2023-07-20T14:14:00;21.50;99.90
39371;DHT22;25099;51.946;4.838;2023-07-20T14:16:26;21.50;99.70
39371;DHT22;25099;51.946;4.838;2023-07-20T14:18:51;21.50;99.70
39371;DHT22;25099;51.946;4.838;2023-07-20T14:21:19;21.60;99.70
39371;DHT22;25099;51.946;4.838;2023-07-20T14:23:46;21.70;99.70
39371;DHT22;25099;51.946;4.838;2023-07-20T14:26:12;21.70;99.70
39371;DHT22;25099;51.946;4.838;2023-07-20T14:28:38;21.70;99.70
39371;DHT22;25099;51.946;4.838;2023-07-20T14:31:04;21.60;99.90
39371;DHT22;25099;51.946;4.838;2023-07-20T14:33:30;21.60;99.80
39371;DHT22;25099;51.946;4.838;2023-07-20T14:35:56;21.60;99.90
39371;DHT22;25099;51.946;4.838;2023-07-20T14:38:21;21.60;99.90
39371;DHT22;25099;51.946;4.838;2023-07-20T14:40:47;21.60;99.10
39371;DHT22;25099;51.946;4.838;2023-07-20T14:43:12;21.60;99.40
39371;DHT22;25099;51.946;4.838;2023-07-20T14:45:44;21.60;99.30
39371;DHT22;25099;51.946;4.838;2023-07-20T14:48:11;21.60;99.60
39371;DHT22;25099;51.946;4.838;2023-07-20T14:50:36;21.50;99.30
39371;DHT22;25099;51.946;4.838;2023-07-20T14:53:13;21.50;99.40
39371;DHT22;25099;51.946;4.838;2023-07-20T14:55:38;21.50;99.20
39371;DHT22;25099;51.946;4.838;2023-07-20T14:58:04;21.50;98.90
39371;DHT22;25099;51.946;4.838;2023-07-20T15:00:30;21.60;99.10
39371;DHT22;25099;51.946;4.838;2023-07-20T15:02:56;21.60;98.50
39371;DHT22;25099;51.946;4.838;2023-07-20T15:05:22;21.50;98.50
39371;DHT22;25099;51.946;4.838;2023-07-20T15:07:49;21.50;98.80
39371;DHT22;25099;51.946;4.838;2023-07-20T15:10:15;21.60;98.60
39371;DHT22;25099;51.946;4.838;2023-07-20T15:12:41;21.60;98.70
39371;DHT22;25099;51.946;4.838;2023-07-20T15:15:09;21.60;98.60
39371;DHT22;25099;51.946;4.838;2023-07-20T15:17:36;21.60;98.60
39371;DHT22;25099;51.946;4.838;2023-07-20T15:20:03;21.60;98.90
39371;DHT22;25099;51.946;4.838;2023-07-20T15:22:30;21.70;98.80
39371;DHT22;25099;51.946;4.838;2023-07-20T15:24:56;21.70;98.60
39371;DHT22;25099;51.946;4.838;2023-07-20T15:27:21;21.60;98.80
39371;DHT22;25099;51.946;4.838;2023-07-20T15:29:48;21.60;98.70
39371;DHT22;25099;51.946;4.838;2023-07-20T15:32:14;21.50;98.60
39371;DHT22;25099;51.946;4.838;2023-07-20T15:34:42;22.00;99.40
39371;DHT22;25099;51.946;4.838;2023-07-20T15:37:08;21.40;98.90